sensor_id;sensor_type;location;lat;lon;timestamp;P1;durP1;ratioP1;P2;durP2;ratioP2
20423;SDS011;10371;49.042;8.002;2023-10-08T00:00:38;5.18;;;3.55;;
20423;SDS011;10371;49.042;8.002;2023-10-08T00:01:49;4.40;;;3.13;;
20423;SDS011;10371;49.042;8.002;2023-10-08T00:02:51;4.78;;;3.42;;
20423;SDS011;10371;49.042;8.002;2023-10-08T00:03:52;4.72;;;3.55;;
20423;SDS011;10371;49.042;8.002;2023-10-08T00:04:53;4.20;;;3.13;;
20423;SDS011;10371;49.042;8.002;2023-10-08T00:05:57;3.80;;;3.13;;
20423;SDS011;10371;49.042;8.002;2023-10-08T00:06:58;4.00;;;3.15;;
20423;SDS011;10371;49.042;8.002;2023-10-08T00:07:58;4.15;;;3.17;;
20423;SDS011;10371;49.042;8.002;2023-10-08T00:08:59;5.85;;;3.45;;
20423;SDS011;10371;49.042;8.002;2023-10-08T00:10:08;3.97;;;3.28;;
20423;SDS011;10371;49.042;8.002;2023-10-08T00:11:09;4.93;;;3.42;;
20423;SDS011;10371;49.042;8.002;2023-10-08T00:12:12;4.45;;;3.45;;
20423;SDS011;10371;49.042;8.002;2023-10-08T00:13:14;4.18;;;3.28;;
20423;SDS011;10371;49.042;8.002;2023-10-08T00:14:17;4.68;;;3.42;;
20423;SDS011;10371;49.042;8.002;2023-10-08T00:15:21;4.45;;;3.13;;
20423;SDS011;10371;49.042;8.002;2023-10-08T00:16:25;4.60;;;3.28;;
20423;SDS011;10371;49.042;8.002;2023-10-08T00:17:28;4.03;;;3.25;;
20423;SDS011;10371;49.042;8.002;2023-10-08T00:18:28;3.90;;;3.45;;
20423;SDS011;10371;49.042;8.002;2023-10-08T00:19:28;5.00;;;3.53;;
20423;SDS011;10371;49.042;8.002;2023-10-08T00:20:35;5.15;;;3.40;;
20423;SDS011;10371;49.042;8.002;2023-10-08T00:21:37;6.15;;;3.83;;
20423;SDS011;10371;49.042;8.002;2023-10-08T00:22:38;5.20;;;3.40;;
20423;SDS011;10371;49.042;8.002;2023-10-08T00:23:38;4.25;;;3.47;;
20423;SDS011;10371;49.042;8.002;2023-10-08T00:24:57;4.35;;;3.58;;
20423;SDS011;10371;49.042;8.002;2023-10-08T00:25:58;4.40;;;3.70;;
20423;SDS011;10371;49.042;8.002;2023-10-08T00:27:04;3.50;;;3.10;;
20423;SDS011;10371;49.042;8.002;2023-10-08T00:28:09;4.10;;;3.53;;
20423;SDS011;10371;49.042;8.002;2023-10-08T00:29:13;5.53;;;3.83;;
20423;SDS011;10371;49.042;8.002;2023-10-08T00:30:17;4.78;;;3.70;;
20423;SDS011;10371;49.042;8.002;2023-10-08T00:31:18;4.38;;;3.70;;
20423;SDS011;10371;49.042;8.002;2023-10-08T00:32:19;5.13;;;3.80;;
20423;SDS011;10371;49.042;8.002;2023-10-08T00:33:19;4.68;;;3.83;;
20423;SDS011;10371;49.042;8.002;2023-10-08T00:34:19;5.75;;;3.80;;
20423;SDS011;10371;49.042;8.002;2023-10-08T00:35:20;3.78;;;3.40;;
20423;SDS011;10371;49.042;8.002;2023-10-08T00:36:20;6.00;;;3.70;;
20423;SDS011;10371;49.042;8.002;2023-10-08T00:37:20;4.47;;;3.65;;
20423;SDS011;10371;49.042;8.002;2023-10-08T00:38:23;5.30;;;3.75;;
20423;SDS011;10371;49.042;8.002;2023-10-08T00:39:32;5.38;;;3.50;;
20423;SDS011;10371;49.042;8.002;2023-10-08T00:40:36;4.93;;;3.85;;
20423;SDS011;10371;49.042;8.002;2023-10-08T00:41:39;5.40;;;3.03;;
20423;SDS011;10371;49.042;8.002;2023-10-08T00:42:42;4.88;;;3.13;;
20423;SDS011;10371;49.042;8.002;2023-10-08T00:43:45;4.97;;;2.88;;
20423;SDS011;10371;49.042;8.002;2023-10-08T00:44:46;4.13;;;3.40;;
20423;SDS011;10371;49.042;8.002;2023-10-08T00:45:51;5.35;;;3.97;;
20423;SDS011;10371;49.042;8.002;2023-10-08T00:46:52;4.90;;;3.53;;
20423;SDS011;10371;49.042;8.002;2023-10-08T00:47:53;4.25;;;3.28;;
20423;SDS011;10371;49.042;8.002;2023-10-08T00:48:56;4.25;;;3.33;;
20423;SDS011;10371;49.042;8.002;2023-10-08T00:49:58;4.90;;;3.40;;
20423;SDS011;10371;49.042;8.002;2023-10-08T00:51:06;3.65;;;3.13;;
20423;SDS011;10371;49.042;8.002;2023-10-08T00:52:29;4.10;;;3.35;;
20423;SDS011;10371;49.042;8.002;2023-10-08T00:53:38;5.22;;;3.50;;
20423;SDS011;10371;49.042;8.002;2023-10-08T00:54:39;4.75;;;3.50;;
20423;SDS011;10371;49.042;8.002;2023-10-08T00:55:51;4.82;;;3.53;;
20423;SDS011;10371;49.042;8.002;2023-10-08T00:56:54;3.88;;;3.30;;
20423;SDS011;10371;49.042;8.002;2023-10-08T00:57:58;5.72;;;2.83;;
20423;SDS011;10371;49.042;8.002;2023-10-08T00:59:07;4.05;;;3.33;;
20423;SDS011;10371;49.042;8.002;2023-10-08T01:00:13;5.03;;;3.33;;
20423;SDS011;10371;49.042;8.002;2023-10-08T01:01:22;4.55;;;3.38;;
20423;SDS011;10371;49.042;8.002;2023-10-08T01:02:29;3.67;;;2.95;;
20423;SDS011;10371;49.042;8.002;2023-10-08T01:03:45;4.60;;;3.20;;
20423;SDS011;10371;49.042;8.002;2023-10-08T01:04:45;4.53;;;3.60;;
20423;SDS011;10371;49.042;8.002;2023-10-08T01:05:46;4.18;;;3.30;;
20423;SDS011;10371;49.042;8.002;2023-10-08T01:06:46;4.60;;;3.00;;
20423;SDS011;10371;49.042;8.002;2023-10-08T01:07:49;4.82;;;3.22;;
20423;SDS011;10371;49.042;8.002;2023-10-08T01:08:51;6.15;;;3.60;;
20423;SDS011;10371;49.042;8.002;2023-10-08T01:09:57;3.88;;;3.30;;
20423;SDS011;10371;49.042;8.002;2023-10-08T01:11:16;3.78;;;3.00;;
20423;SDS011;10371;49.042;8.002;2023-10-08T01:13:21;5.80;;;3.50;;
20423;SDS011;10371;49.042;8.002;2023-10-08T01:14:22;3.90;;;3.35;;
20423;SDS011;10371;49.042;8.002;2023-10-08T01:15:32;4.95;;;3.50;;
20423;SDS011;10371;49.042;8.002;2023-10-08T01:16:35;4.20;;;2.80;;
20423;SDS011;10371;49.042;8.002;2023-10-08T01:17:36;3.83;;;3.38;;
20423;SDS011;10371;49.042;8.002;2023-10-08T01:18:46;4.57;;;3.40;;
20423;SDS011;10371;49.042;8.002;2023-10-08T01:19:50;3.83;;;3.00;;
20423;SDS011;10371;49.042;8.002;2023-10-08T01:20:56;4.78;;;3.47;;
20423;SDS011;10371;49.042;8.002;2023-10-08T01:22:04;4.88;;;3.45;;
20423;SDS011;10371;49.042;8.002;2023-10-08T01:23:09;4.72;;;3.30;;
20423;SDS011;10371;49.042;8.002;2023-10-08T01:24:14;4.45;;;3.40;;
20423;SDS011;10371;49.042;8.002;2023-10-08T01:25:17;4.53;;;3.03;;
20423;SDS011;10371;49.042;8.002;2023-10-08T01:26:23;3.70;;;3.15;;
20423;SDS011;10371;49.042;8.002;2023-10-08T01:27:23;6.40;;;3.10;;
20423;SDS011;10371;49.042;8.002;2023-10-08T01:28:24;4.90;;;3.58;;
20423;SDS011;10371;49.042;8.002;2023-10-08T01:29:29;4.88;;;3.30;;
20423;SDS011;10371;49.042;8.002;2023-10-08T01:30:29;4.68;;;3.47;;
20423;SDS011;10371;49.042;8.002;2023-10-08T01:31:41;4.25;;;3.00;;
20423;SDS011;10371;49.042;8.002;2023-10-08T01:32:44;4.80;;;3.25;;
20423;SDS011;10371;49.042;8.002;2023-10-08T01:33:45;5.28;;;3.53;;
20423;SDS011;10371;49.042;8.002;2023-10-08T01:34:54;4.78;;;3.42;;
20423;SDS011;10371;49.042;8.002;2023-10-08T01:35:54;4.30;;;3.47;;
20423;SDS011;10371;49.042;8.002;2023-10-08T01:36:55;4.30;;;3.55;;
20423;SDS011;10371;49.042;8.002;2023-10-08T01:37:55;4.55;;;3.53;;
20423;SDS011;10371;49.042;8.002;2023-10-08T01:38:56;4.55;;;3.33;;
20423;SDS011;10371;49.042;8.002;2023-10-08T01:39:57;5.72;;;3.75;;
20423;SDS011;10371;49.042;8.002;2023-10-08T01:41:01;5.40;;;3.40;;
20423;SDS011;10371;49.042;8.002;2023-10-08T01:42:18;5.57;;;3.20;;
20423;SDS011;10371;49.042;8.002;2023-10-08T01:43:20;3.78;;;3.20;;
20423;SDS011;10371;49.042;8.002;2023-10-08T01:44:21;4.80;;;3.53;;
20423;SDS011;10371;49.042;8.002;2023-10-08T01:45:21;4.20;;;3.28;;
20423;SDS011;10371;49.042;8.002;2023-10-08T01:46:24;7.55;;;3.38;;
20423;SDS011;10371;49.042;8.002;2023-10-08T01:47:25;5.28;;;3.15;;
20423;SDS011;10371;49.042;8.002;2023-10-08T01:48:26;4.18;;;3.50;;
20423;SDS011;10371;49.042;8.002;2023-10-08T01:49:28;4.55;;;3.42;;
20423;SDS011;10371;49.042;8.002;2023-10-08T01:50:33;4.55;;;3.22;;
20423;SDS011;10371;49.042;8.002;2023-10-08T01:51:34;3.58;;;3.28;;
20423;SDS011;10371;49.042;8.002;2023-10-08T01:52:39;3.72;;;3.40;;
20423;SDS011;10371;49.042;8.002;2023-10-08T01:53:41;4.30;;;3.33;;
20423;SDS011;10371;49.042;8.002;2023-10-08T01:54:41;4.85;;;3.30;;
20423;SDS011;10371;49.042;8.002;2023-10-08T01:55:42;3.92;;;2.88;;
20423;SDS011;10371;49.042;8.002;2023-10-08T01:56:48;4.15;;;3.50;;
20423;SDS011;10371;49.042;8.002;2023-10-08T01:57:50;5.43;;;3.53;;
20423;SDS011;10371;49.042;8.002;2023-10-08T01:58:53;8.07;;;3.97;;
20423;SDS011;10371;49.042;8.002;2023-10-08T01:59:54;4.65;;;3.13;;
20423;SDS011;10371;49.042;8.002;2023-10-08T02:00:54;6.82;;;3.40;;
20423;SDS011;10371;49.042;8.002;2023-10-08T02:01:58;5.07;;;3.15;;
20423;SDS011;10371;49.042;8.002;2023-10-08T02:02:58;4.78;;;3.00;;
20423;SDS011;10371;49.042;8.002;2023-10-08T02:03:59;4.63;;;3.75;;
20423;SDS011;10371;49.042;8.002;2023-10-08T02:04:59;4.25;;;3.55;;
20423;SDS011;10371;49.042;8.002;2023-10-08T02:06:00;6.32;;;3.28;;
20423;SDS011;10371;49.042;8.002;2023-10-08T02:07:05;4.75;;;3.22;;
20423;SDS011;10371;49.042;8.002;2023-10-08T02:08:12;4.72;;;3.30;;
20423;SDS011;10371;49.042;8.002;2023-10-08T02:09:14;5.45;;;3.90;;
20423;SDS011;10371;49.042;8.002;2023-10-08T02:10:15;7.60;;;3.70;;
20423;SDS011;10371;49.042;8.002;2023-10-08T02:11:15;4.07;;;3.00;;
20423;SDS011;10371;49.042;8.002;2023-10-08T02:12:16;5.05;;;3.38;;
20423;SDS011;10371;49.042;8.002;2023-10-08T02:13:16;7.00;;;3.42;;
20423;SDS011;10371;49.042;8.002;2023-10-08T02:14:17;4.88;;;3.33;;
20423;SDS011;10371;49.042;8.002;2023-10-08T02:15:18;5.35;;;3.38;;
20423;SDS011;10371;49.042;8.002;2023-10-08T02:16:19;6.10;;;3.35;;
20423;SDS011;10371;49.042;8.002;2023-10-08T02:17:21;5.35;;;3.42;;
20423;SDS011;10371;49.042;8.002;2023-10-08T02:18:21;4.40;;;3.38;;
20423;SDS011;10371;49.042;8.002;2023-10-08T02:19:25;4.15;;;3.15;;
20423;SDS011;10371;49.042;8.002;2023-10-08T02:20:28;4.18;;;3.45;;
20423;SDS011;10371;49.042;8.002;2023-10-08T02:21:29;5.43;;;3.30;;
20423;SDS011;10371;49.042;8.002;2023-10-08T02:22:29;4.85;;;3.42;;
20423;SDS011;10371;49.042;8.002;2023-10-08T02:23:29;5.25;;;3.58;;
20423;SDS011;10371;49.042;8.002;2023-10-08T02:24:30;4.63;;;3.42;;
20423;SDS011;10371;49.042;8.002;2023-10-08T02:25:30;4.47;;;3.28;;
20423;SDS011;10371;49.042;8.002;2023-10-08T02:26:31;4.07;;;3.08;;
20423;SDS011;10371;49.042;8.002;2023-10-08T02:27:32;4.60;;;3.38;;
20423;SDS011;10371;49.042;8.002;2023-10-08T02:28:33;4.80;;;3.33;;
20423;SDS011;10371;49.042;8.002;2023-10-08T02:29:33;3.90;;;3.50;;
20423;SDS011;10371;49.042;8.002;2023-10-08T02:30:34;8.30;;;4.15;;
20423;SDS011;10371;49.042;8.002;2023-10-08T02:31:34;4.25;;;3.25;;
20423;SDS011;10371;49.042;8.002;2023-10-08T02:32:35;4.85;;;3.40;;
20423;SDS011;10371;49.042;8.002;2023-10-08T02:33:36;3.90;;;3.08;;
20423;SDS011;10371;49.042;8.002;2023-10-08T02:34:37;4.28;;;3.40;;
20423;SDS011;10371;49.042;8.002;2023-10-08T02:35:38;5.47;;;3.67;;
20423;SDS011;10371;49.042;8.002;2023-10-08T02:36:39;5.65;;;3.75;;
20423;SDS011;10371;49.042;8.002;2023-10-08T02:37:40;4.88;;;3.38;;
20423;SDS011;10371;49.042;8.002;2023-10-08T02:38:40;4.80;;;3.42;;
20423;SDS011;10371;49.042;8.002;2023-10-08T02:39:41;6.75;;;3.55;;
20423;SDS011;10371;49.042;8.002;2023-10-08T02:40:41;4.47;;;3.63;;
20423;SDS011;10371;49.042;8.002;2023-10-08T02:41:46;5.28;;;3.60;;
20423;SDS011;10371;49.042;8.002;2023-10-08T02:42:48;4.28;;;3.45;;
20423;SDS011;10371;49.042;8.002;2023-10-08T02:43:49;4.82;;;3.22;;
20423;SDS011;10371;49.042;8.002;2023-10-08T02:44:49;4.57;;;3.50;;
20423;SDS011;10371;49.042;8.002;2023-10-08T02:45:51;6.55;;;3.38;;
20423;SDS011;10371;49.042;8.002;2023-10-08T02:46:52;4.60;;;3.55;;
20423;SDS011;10371;49.042;8.002;2023-10-08T02:47:53;6.10;;;3.47;;
20423;SDS011;10371;49.042;8.002;2023-10-08T02:48:57;4.72;;;3.72;;
20423;SDS011;10371;49.042;8.002;2023-10-08T02:49:58;6.15;;;3.47;;
20423;SDS011;10371;49.042;8.002;2023-10-08T02:50:58;5.20;;;3.70;;
20423;SDS011;10371;49.042;8.002;2023-10-08T02:52:07;3.58;;;3.10;;
20423;SDS011;10371;49.042;8.002;2023-10-08T02:53:12;4.30;;;3.50;;
20423;SDS011;10371;49.042;8.002;2023-10-08T02:54:20;4.75;;;3.53;;
20423;SDS011;10371;49.042;8.002;2023-10-08T02:55:31;4.35;;;3.58;;
20423;SDS011;10371;49.042;8.002;2023-10-08T02:56:34;4.72;;;3.50;;
20423;SDS011;10371;49.042;8.002;2023-10-08T02:57:35;4.57;;;3.25;;
20423;SDS011;10371;49.042;8.002;2023-10-08T02:58:35;4.22;;;3.40;;
20423;SDS011;10371;49.042;8.002;2023-10-08T02:59:36;5.70;;;3.63;;
20423;SDS011;10371;49.042;8.002;2023-10-08T03:00:43;4.00;;;3.22;;
20423;SDS011;10371;49.042;8.002;2023-10-08T03:01:46;5.55;;;3.60;;
20423;SDS011;10371;49.042;8.002;2023-10-08T03:02:49;5.35;;;3.55;;
20423;SDS011;10371;49.042;8.002;2023-10-08T03:03:51;5.63;;;3.42;;
20423;SDS011;10371;49.042;8.002;2023-10-08T03:05:03;6.20;;;3.67;;
20423;SDS011;10371;49.042;8.002;2023-10-08T03:06:08;5.10;;;3.50;;
20423;SDS011;10371;49.042;8.002;2023-10-08T03:07:14;5.57;;;4.03;;
20423;SDS011;10371;49.042;8.002;2023-10-08T03:08:21;4.82;;;3.55;;
20423;SDS011;10371;49.042;8.002;2023-10-08T03:09:22;5.53;;;3.75;;
20423;SDS011;10371;49.042;8.002;2023-10-08T03:10:24;4.18;;;3.45;;
20423;SDS011;10371;49.042;8.002;2023-10-08T03:11:32;4.20;;;3.42;;
20423;SDS011;10371;49.042;8.002;2023-10-08T03:12:32;5.43;;;3.75;;
20423;SDS011;10371;49.042;8.002;2023-10-08T03:13:33;5.47;;;3.60;;
20423;SDS011;10371;49.042;8.002;2023-10-08T03:14:38;4.90;;;3.63;;
20423;SDS011;10371;49.042;8.002;2023-10-08T03:15:49;4.20;;;3.67;;
20423;SDS011;10371;49.042;8.002;2023-10-08T03:16:58;4.40;;;2.95;;
20423;SDS011;10371;49.042;8.002;2023-10-08T03:18:07;4.32;;;3.50;;
20423;SDS011;10371;49.042;8.002;2023-10-08T03:19:10;5.75;;;3.83;;
20423;SDS011;10371;49.042;8.002;2023-10-08T03:20:11;5.65;;;3.47;;
20423;SDS011;10371;49.042;8.002;2023-10-08T03:21:30;5.13;;;3.88;;
20423;SDS011;10371;49.042;8.002;2023-10-08T03:22:38;5.13;;;3.72;;
20423;SDS011;10371;49.042;8.002;2023-10-08T03:23:45;4.68;;;3.70;;
20423;SDS011;10371;49.042;8.002;2023-10-08T03:24:50;5.82;;;4.00;;
20423;SDS011;10371;49.042;8.002;2023-10-08T03:25:54;7.55;;;4.10;;
20423;SDS011;10371;49.042;8.002;2023-10-08T03:27:00;4.72;;;3.60;;
20423;SDS011;10371;49.042;8.002;2023-10-08T03:28:13;7.18;;;4.15;;
20423;SDS011;10371;49.042;8.002;2023-10-08T03:29:16;5.07;;;3.78;;
20423;SDS011;10371;49.042;8.002;2023-10-08T03:30:17;4.97;;;3.60;;
20423;SDS011;10371;49.042;8.002;2023-10-08T03:31:18;5.53;;;3.97;;
20423;SDS011;10371;49.042;8.002;2023-10-08T03:32:19;4.72;;;3.60;;
20423;SDS011;10371;49.042;8.002;2023-10-08T03:33:27;4.30;;;3.55;;
20423;SDS011;10371;49.042;8.002;2023-10-08T03:34:29;4.32;;;3.42;;
20423;SDS011;10371;49.042;8.002;2023-10-08T03:35:34;4.88;;;3.70;;
20423;SDS011;10371;49.042;8.002;2023-10-08T03:36:36;5.10;;;3.65;;
20423;SDS011;10371;49.042;8.002;2023-10-08T03:37:44;5.70;;;3.70;;
20423;SDS011;10371;49.042;8.002;2023-10-08T03:38:49;5.13;;;3.88;;
20423;SDS011;10371;49.042;8.002;2023-10-08T03:39:52;6.45;;;3.85;;
20423;SDS011;10371;49.042;8.002;2023-10-08T03:41:00;4.13;;;3.45;;
20423;SDS011;10371;49.042;8.002;2023-10-08T03:42:09;4.85;;;3.70;;
20423;SDS011;10371;49.042;8.002;2023-10-08T03:43:12;5.38;;;3.72;;
20423;SDS011;10371;49.042;8.002;2023-10-08T03:44:24;5.05;;;3.40;;
20423;SDS011;10371;49.042;8.002;2023-10-08T03:45:24;5.72;;;3.97;;
20423;SDS011;10371;49.042;8.002;2023-10-08T03:46:43;6.70;;;3.38;;
20423;SDS011;10371;49.042;8.002;2023-10-08T03:47:46;5.38;;;3.88;;
20423;SDS011;10371;49.042;8.002;2023-10-08T03:48:53;4.10;;;3.40;;
20423;SDS011;10371;49.042;8.002;2023-10-08T03:49:57;4.28;;;3.50;;
20423;SDS011;10371;49.042;8.002;2023-10-08T03:51:05;4.53;;;3.60;;
20423;SDS011;10371;49.042;8.002;2023-10-08T03:52:12;6.60;;;3.75;;
20423;SDS011;10371;49.042;8.002;2023-10-08T03:53:15;5.55;;;3.80;;
20423;SDS011;10371;49.042;8.002;2023-10-08T03:54:16;5.00;;;3.67;;
20423;SDS011;10371;49.042;8.002;2023-10-08T03:55:17;4.72;;;4.03;;
20423;SDS011;10371;49.042;8.002;2023-10-08T03:56:22;6.20;;;3.90;;
20423;SDS011;10371;49.042;8.002;2023-10-08T03:57:22;5.18;;;3.95;;
20423;SDS011;10371;49.042;8.002;2023-10-08T03:58:29;5.00;;;3.85;;
20423;SDS011;10371;49.042;8.002;2023-10-08T03:59:31;3.63;;;3.25;;
20423;SDS011;10371;49.042;8.002;2023-10-08T04:00:31;5.38;;;3.60;;
20423;SDS011;10371;49.042;8.002;2023-10-08T04:01:31;7.53;;;3.85;;
20423;SDS011;10371;49.042;8.002;2023-10-08T04:02:33;5.05;;;4.05;;
20423;SDS011;10371;49.042;8.002;2023-10-08T04:03:39;5.40;;;4.05;;
20423;SDS011;10371;49.042;8.002;2023-10-08T04:04:51;6.38;;;3.85;;
20423;SDS011;10371;49.042;8.002;2023-10-08T04:05:53;5.03;;;3.97;;
20423;SDS011;10371;49.042;8.002;2023-10-08T04:07:20;5.85;;;3.88;;
20423;SDS011;10371;49.042;8.002;2023-10-08T04:08:26;4.15;;;3.20;;
20423;SDS011;10371;49.042;8.002;2023-10-08T04:09:59;6.38;;;4.20;;
20423;SDS011;10371;49.042;8.002;2023-10-08T04:11:09;5.75;;;4.40;;
20423;SDS011;10371;49.042;8.002;2023-10-08T04:12:27;5.03;;;4.05;;
20423;SDS011;10371;49.042;8.002;2023-10-08T04:13:27;5.78;;;4.25;;
20423;SDS011;10371;49.042;8.002;2023-10-08T04:14:28;5.10;;;4.10;;
20423;SDS011;10371;49.042;8.002;2023-10-08T04:15:29;5.57;;;4.18;;
20423;SDS011;10371;49.042;8.002;2023-10-08T04:16:31;4.30;;;3.70;;
20423;SDS011;10371;49.042;8.002;2023-10-08T04:17:36;4.85;;;4.00;;
20423;SDS011;10371;49.042;8.002;2023-10-08T04:18:43;5.45;;;4.18;;
20423;SDS011;10371;49.042;8.002;2023-10-08T04:19:45;4.03;;;3.60;;
20423;SDS011;10371;49.042;8.002;2023-10-08T04:20:45;5.15;;;3.92;;
20423;SDS011;10371;49.042;8.002;2023-10-08T04:22:00;5.05;;;4.18;;
20423;SDS011;10371;49.042;8.002;2023-10-08T04:23:08;5.05;;;4.10;;
20423;SDS011;10371;49.042;8.002;2023-10-08T04:24:18;6.68;;;4.13;;
20423;SDS011;10371;49.042;8.002;2023-10-08T04:25:19;6.25;;;4.57;;
20423;SDS011;10371;49.042;8.002;2023-10-08T04:26:20;5.22;;;4.13;;
20423;SDS011;10371;49.042;8.002;2023-10-08T04:27:23;7.13;;;4.28;;
20423;SDS011;10371;49.042;8.002;2023-10-08T04:28:26;5.20;;;3.80;;
20423;SDS011;10371;49.042;8.002;2023-10-08T04:29:28;5.15;;;4.28;;
20423;SDS011;10371;49.042;8.002;2023-10-08T04:30:32;5.72;;;4.15;;
20423;SDS011;10371;49.042;8.002;2023-10-08T04:31:33;5.30;;;3.83;;
20423;SDS011;10371;49.042;8.002;2023-10-08T04:32:37;5.43;;;4.22;;
20423;SDS011;10371;49.042;8.002;2023-10-08T04:33:41;5.95;;;4.35;;
20423;SDS011;10371;49.042;8.002;2023-10-08T04:34:42;6.63;;;4.47;;
20423;SDS011;10371;49.042;8.002;2023-10-08T04:35:46;5.20;;;4.20;;
20423;SDS011;10371;49.042;8.002;2023-10-08T04:36:55;7.13;;;4.93;;
20423;SDS011;10371;49.042;8.002;2023-10-08T04:38:00;6.65;;;4.90;;
20423;SDS011;10371;49.042;8.002;2023-10-08T04:39:02;7.95;;;5.85;;
20423;SDS011;10371;49.042;8.002;2023-10-08T04:40:13;6.68;;;4.57;;
20423;SDS011;10371;49.042;8.002;2023-10-08T04:41:16;6.32;;;4.53;;
20423;SDS011;10371;49.042;8.002;2023-10-08T04:42:19;5.45;;;4.10;;
20423;SDS011;10371;49.042;8.002;2023-10-08T04:43:25;7.75;;;4.30;;
20423;SDS011;10371;49.042;8.002;2023-10-08T04:44:27;5.72;;;4.45;;
20423;SDS011;10371;49.042;8.002;2023-10-08T04:45:31;8.45;;;5.40;;
20423;SDS011;10371;49.042;8.002;2023-10-08T04:46:34;7.38;;;5.00;;
20423;SDS011;10371;49.042;8.002;2023-10-08T04:47:55;7.32;;;5.78;;
20423;SDS011;10371;49.042;8.002;2023-10-08T04:48:58;9.00;;;5.88;;
20423;SDS011;10371;49.042;8.002;2023-10-08T04:49:59;9.20;;;6.45;;
20423;SDS011;10371;49.042;8.002;2023-10-08T04:50:59;9.00;;;6.30;;
20423;SDS011;10371;49.042;8.002;2023-10-08T04:52:01;11.00;;;6.13;;
20423;SDS011;10371;49.042;8.002;2023-10-08T04:53:09;10.20;;;6.65;;
20423;SDS011;10371;49.042;8.002;2023-10-08T04:54:10;7.47;;;6.18;;
20423;SDS011;10371;49.042;8.002;2023-10-08T04:55:16;7.22;;;5.70;;
20423;SDS011;10371;49.042;8.002;2023-10-08T04:56:20;8.00;;;6.22;;
20423;SDS011;10371;49.042;8.002;2023-10-08T04:57:23;8.05;;;6.20;;
20423;SDS011;10371;49.042;8.002;2023-10-08T04:58:25;7.10;;;5.60;;
20423;SDS011;10371;49.042;8.002;2023-10-08T04:59:33;6.97;;;5.38;;
20423;SDS011;10371;49.042;8.002;2023-10-08T05:00:33;8.55;;;6.35;;
20423;SDS011;10371;49.042;8.002;2023-10-08T05:01:51;7.20;;;5.88;;
20423;SDS011;10371;49.042;8.002;2023-10-08T05:03:10;5.88;;;5.00;;
20423;SDS011;10371;49.042;8.002;2023-10-08T05:04:16;7.35;;;5.40;;
20423;SDS011;10371;49.042;8.002;2023-10-08T05:05:45;7.55;;;4.97;;
20423;SDS011;10371;49.042;8.002;2023-10-08T05:06:55;6.45;;;5.05;;
20423;SDS011;10371;49.042;8.002;2023-10-08T05:08:17;7.93;;;5.57;;
20423;SDS011;10371;49.042;8.002;2023-10-08T05:09:28;9.00;;;6.07;;
20423;SDS011;10371;49.042;8.002;2023-10-08T05:11:07;7.85;;;6.07;;
20423;SDS011;10371;49.042;8.002;2023-10-08T05:12:37;6.82;;;5.63;;
20423;SDS011;10371;49.042;8.002;2023-10-08T05:13:38;7.00;;;5.88;;
20423;SDS011;10371;49.042;8.002;2023-10-08T05:14:55;6.72;;;6.03;;
20423;SDS011;10371;49.042;8.002;2023-10-08T05:16:09;7.22;;;6.18;;
20423;SDS011;10371;49.042;8.002;2023-10-08T05:17:21;7.10;;;5.47;;
20423;SDS011;10371;49.042;8.002;2023-10-08T05:18:21;6.43;;;4.95;;
20423;SDS011;10371;49.042;8.002;2023-10-08T05:19:21;6.43;;;4.82;;
20423;SDS011;10371;49.042;8.002;2023-10-08T05:20:39;8.18;;;5.55;;
20423;SDS011;10371;49.042;8.002;2023-10-08T05:21:58;10.32;;;7.18;;
20423;SDS011;10371;49.042;8.002;2023-10-08T05:23:17;9.65;;;7.00;;
20423;SDS011;10371;49.042;8.002;2023-10-08T05:24:24;10.45;;;7.13;;
20423;SDS011;10371;49.042;8.002;2023-10-08T05:25:41;10.70;;;7.68;;
20423;SDS011;10371;49.042;8.002;2023-10-08T05:26:57;9.98;;;7.47;;
20423;SDS011;10371;49.042;8.002;2023-10-08T05:28:17;10.18;;;7.50;;
20423;SDS011;10371;49.042;8.002;2023-10-08T05:29:24;11.07;;;6.97;;
20423;SDS011;10371;49.042;8.002;2023-10-08T05:30:52;9.68;;;7.60;;
20423;SDS011;10371;49.042;8.002;2023-10-08T05:32:11;9.20;;;6.68;;
20423;SDS011;10371;49.042;8.002;2023-10-08T05:33:29;12.13;;;8.25;;
20423;SDS011;10371;49.042;8.002;2023-10-08T05:34:50;11.20;;;8.38;;
20423;SDS011;10371;49.042;8.002;2023-10-08T05:36:12;10.15;;;7.20;;
20423;SDS011;10371;49.042;8.002;2023-10-08T05:37:33;9.43;;;6.55;;
20423;SDS011;10371;49.042;8.002;2023-10-08T05:38:41;7.70;;;5.72;;
20423;SDS011;10371;49.042;8.002;2023-10-08T05:39:49;5.82;;;4.85;;
20423;SDS011;10371;49.042;8.002;2023-10-08T05:40:56;6.07;;;4.68;;
20423;SDS011;10371;49.042;8.002;2023-10-08T05:42:00;6.07;;;4.82;;
20423;SDS011;10371;49.042;8.002;2023-10-08T05:43:19;6.68;;;4.63;;
20423;SDS011;10371;49.042;8.002;2023-10-08T05:44:38;5.47;;;4.78;;
20423;SDS011;10371;49.042;8.002;2023-10-08T05:45:39;7.03;;;4.63;;
20423;SDS011;10371;49.042;8.002;2023-10-08T05:46:52;6.10;;;4.15;;
20423;SDS011;10371;49.042;8.002;2023-10-08T05:47:55;5.50;;;4.07;;
20423;SDS011;10371;49.042;8.002;2023-10-08T05:49:15;5.85;;;4.43;;
20423;SDS011;10371;49.042;8.002;2023-10-08T05:50:26;4.90;;;4.00;;
20423;SDS011;10371;49.042;8.002;2023-10-08T05:51:26;6.68;;;4.22;;
20423;SDS011;10371;49.042;8.002;2023-10-08T05:52:47;5.47;;;4.20;;
20423;SDS011;10371;49.042;8.002;2023-10-08T05:54:08;6.28;;;4.32;;
20423;SDS011;10371;49.042;8.002;2023-10-08T05:55:25;5.97;;;4.03;;
20423;SDS011;10371;49.042;8.002;2023-10-08T05:56:26;6.05;;;4.57;;
20423;SDS011;10371;49.042;8.002;2023-10-08T05:57:42;9.15;;;4.63;;
20423;SDS011;10371;49.042;8.002;2023-10-08T05:58:46;4.95;;;3.70;;
20423;SDS011;10371;49.042;8.002;2023-10-08T06:00:00;4.70;;;4.00;;
20423;SDS011;10371;49.042;8.002;2023-10-08T06:01:00;4.72;;;3.72;;
20423;SDS011;10371;49.042;8.002;2023-10-08T06:02:09;5.72;;;4.07;;
20423;SDS011;10371;49.042;8.002;2023-10-08T06:03:27;5.75;;;4.07;;
20423;SDS011;10371;49.042;8.002;2023-10-08T06:04:39;5.72;;;4.00;;
20423;SDS011;10371;49.042;8.002;2023-10-08T06:05:53;5.95;;;4.35;;
20423;SDS011;10371;49.042;8.002;2023-10-08T06:07:13;5.35;;;3.78;;
20423;SDS011;10371;49.042;8.002;2023-10-08T06:08:20;5.80;;;4.45;;
20423;SDS011;10371;49.042;8.002;2023-10-08T06:09:38;6.28;;;4.75;;
20423;SDS011;10371;49.042;8.002;2023-10-08T06:10:40;5.47;;;4.10;;
20423;SDS011;10371;49.042;8.002;2023-10-08T06:11:40;5.43;;;4.38;;
20423;SDS011;10371;49.042;8.002;2023-10-08T06:12:44;5.38;;;4.28;;
20423;SDS011;10371;49.042;8.002;2023-10-08T06:13:50;5.65;;;4.43;;
20423;SDS011;10371;49.042;8.002;2023-10-08T06:14:55;5.55;;;4.38;;
20423;SDS011;10371;49.042;8.002;2023-10-08T06:16:08;5.28;;;4.03;;
20423;SDS011;10371;49.042;8.002;2023-10-08T06:17:09;7.07;;;4.60;;
20423;SDS011;10371;49.042;8.002;2023-10-08T06:18:34;6.07;;;4.75;;
20423;SDS011;10371;49.042;8.002;2023-10-08T06:19:34;6.70;;;4.72;;
20423;SDS011;10371;49.042;8.002;2023-10-08T06:20:35;5.22;;;4.22;;
20423;SDS011;10371;49.042;8.002;2023-10-08T06:21:40;5.18;;;4.05;;
20423;SDS011;10371;49.042;8.002;2023-10-08T06:22:42;5.15;;;4.10;;
20423;SDS011;10371;49.042;8.002;2023-10-08T06:23:43;6.10;;;4.53;;
20423;SDS011;10371;49.042;8.002;2023-10-08T06:24:43;8.57;;;4.60;;
20423;SDS011;10371;49.042;8.002;2023-10-08T06:25:44;6.05;;;4.10;;
20423;SDS011;10371;49.042;8.002;2023-10-08T06:26:45;6.47;;;4.65;;
20423;SDS011;10371;49.042;8.002;2023-10-08T06:27:51;5.72;;;4.47;;
20423;SDS011;10371;49.042;8.002;2023-10-08T06:28:57;4.70;;;3.92;;
20423;SDS011;10371;49.042;8.002;2023-10-08T06:29:58;6.18;;;4.32;;
20423;SDS011;10371;49.042;8.002;2023-10-08T06:30:59;5.65;;;4.22;;
20423;SDS011;10371;49.042;8.002;2023-10-08T06:31:59;6.95;;;4.55;;
20423;SDS011;10371;49.042;8.002;2023-10-08T06:33:02;5.22;;;4.28;;
20423;SDS011;10371;49.042;8.002;2023-10-08T06:34:03;6.03;;;4.60;;
20423;SDS011;10371;49.042;8.002;2023-10-08T06:35:04;6.78;;;4.32;;
20423;SDS011;10371;49.042;8.002;2023-10-08T06:36:05;7.03;;;4.63;;